sensor_id;sensor_type;location;lat;lon;timestamp;P1;durP1;ratioP1;P2;durP2;ratioP2
57249;SDS011;43102;52.014;-0.680;2023-04-06T00:00:00;10.30;;;7.80;;
57249;SDS011;43102;52.014;-0.680;2023-04-06T00:01:01;10.30;;;7.80;;
57249;SDS011;43102;52.014;-0.680;2023-04-06T00:02:01;10.30;;;7.80;;
57249;SDS011;43102;52.014;-0.680;2023-04-06T00:03:01;10.30;;;7.80;;
57249;SDS011;43102;52.014;-0.680;2023-04-06T00:04:01;10.30;;;7.80;;
57249;SDS011;43102;52.014;-0.680;2023-04-06T00:05:01;10.30;;;7.80;;
57249;SDS011;43102;52.014;-0.680;2023-04-06T00:06:00;10.30;;;7.80;;
57249;SDS011;43102;52.014;-0.680;2023-04-06T00:07:00;10.30;;;7.80;;
57249;SDS011;43102;52.014;-0.680;2023-04-06T00:08:00;10.30;;;7.80;;
57249;SDS011;43102;52.014;-0.680;2023-04-06T00:09:00;9.20;;;6.80;;
57249;SDS011;43102;52.014;-0.680;2023-04-06T00:10:01;9.20;;;6.80;;
57249;SDS011;43102;52.014;-0.680;2023-04-06T00:11:00;9.20;;;6.80;;
57249;SDS011;43102;52.014;-0.680;2023-04-06T00:12:01;9.20;;;6.80;;
57249;SDS011;43102;52.014;-0.680;2023-04-06T00:13:00;9.20;;;6.80;;
57249;SDS011;43102;52.014;-0.680;2023-04-06T00:14:00;9.20;;;6.80;;
57249;SDS011;43102;52.014;-0.680;2023-04-06T00:15:01;9.20;;;6.80;;
57249;SDS011;43102;52.014;-0.680;2023-04-06T00:16:01;9.20;;;6.80;;
57249;SDS011;43102;52.014;-0.680;2023-04-06T00:17:01;9.20;;;6.80;;
57249;SDS011;43102;52.014;-0.680;2023-04-06T00:18:01;9.20;;;6.80;;
57249;SDS011;43102;52.014;-0.680;2023-04-06T00:19:01;9.20;;;6.80;;
57249;SDS011;43102;52.014;-0.680;2023-04-06T00:20:01;9.20;;;6.80;;
57249;SDS011;43102;52.014;-0.680;2023-04-06T00:21:00;9.20;;;6.80;;
57249;SDS011;43102;52.014;-0.680;2023-04-06T00:22:02;9.20;;;6.80;;
57249;SDS011;43102;52.014;-0.680;2023-04-06T00:23:00;9.20;;;6.80;;
57249;SDS011;43102;52.014;-0.680;2023-04-06T00:24:00;9.20;;;6.80;;
57249;SDS011;43102;52.014;-0.680;2023-04-06T00:25:01;9.20;;;6.80;;
57249;SDS011;43102;52.014;-0.680;2023-04-06T00:26:00;9.20;;;6.80;;
57249;SDS011;43102;52.014;-0.680;2023-04-06T00:27:01;9.20;;;6.80;;
57249;SDS011;43102;52.014;-0.680;2023-04-06T00:28:00;9.20;;;6.80;;
57249;SDS011;43102;52.014;-0.680;2023-04-06T00:29:00;9.20;;;6.80;;
57249;SDS011;43102;52.014;-0.680;2023-04-06T00:30:01;9.20;;;6.80;;
57249;SDS011;43102;52.014;-0.680;2023-04-06T00:31:00;9.20;;;6.80;;
57249;SDS011;43102;52.014;-0.680;2023-04-06T00:32:01;9.20;;;6.80;;
57249;SDS011;43102;52.014;-0.680;2023-04-06T00:33:00;9.20;;;6.80;;
57249;SDS011;43102;52.014;-0.680;2023-04-06T00:34:00;9.20;;;6.80;;
57249;SDS011;43102;52.014;-0.680;2023-04-06T00:35:02;9.20;;;6.80;;
57249;SDS011;43102;52.014;-0.680;2023-04-06T00:36:00;9.20;;;6.80;;
57249;SDS011;43102;52.014;-0.680;2023-04-06T00:37:00;9.20;;;6.80;;
57249;SDS011;43102;52.014;-0.680;2023-04-06T00:38:00;9.20;;;6.80;;
57249;SDS011;43102;52.014;-0.680;2023-04-06T00:39:00;8.40;;;5.80;;
57249;SDS011;43102;52.014;-0.680;2023-04-06T00:40:02;8.40;;;5.80;;
57249;SDS011;43102;52.014;-0.680;2023-04-06T00:41:00;8.40;;;5.80;;
57249;SDS011;43102;52.014;-0.680;2023-04-06T00:42:08;8.40;;;5.80;;
57249;SDS011;43102;52.014;-0.680;2023-04-06T00:43:01;8.40;;;5.80;;
57249;SDS011;43102;52.014;-0.680;2023-04-06T00:44:00;8.40;;;5.80;;
57249;SDS011;43102;52.014;-0.680;2023-04-06T00:45:01;8.40;;;5.80;;
57249;SDS011;43102;52.014;-0.680;2023-04-06T00:46:01;8.40;;;5.80;;
57249;SDS011;43102;52.014;-0.680;2023-04-06T00:47:00;8.40;;;5.80;;
57249;SDS011;43102;52.014;-0.680;2023-04-06T00:48:01;8.40;;;5.80;;
57249;SDS011;43102;52.014;-0.680;2023-04-06T00:49:01;8.40;;;5.80;;
57249;SDS011;43102;52.014;-0.680;2023-04-06T00:50:01;8.40;;;5.80;;
57249;SDS011;43102;52.014;-0.680;2023-04-06T00:51:01;8.40;;;5.80;;
57249;SDS011;43102;52.014;-0.680;2023-04-06T00:52:01;8.40;;;5.80;;
57249;SDS011;43102;52.014;-0.680;2023-04-06T00:53:01;8.40;;;5.80;;
57249;SDS011;43102;52.014;-0.680;2023-04-06T00:54:01;8.40;;;5.80;;
57249;SDS011;43102;52.014;-0.680;2023-04-06T00:55:01;8.40;;;5.80;;
57249;SDS011;43102;52.014;-0.680;2023-04-06T00:56:00;8.40;;;5.80;;
57249;SDS011;43102;52.014;-0.680;2023-04-06T00:57:00;8.40;;;5.80;;
57249;SDS011;43102;52.014;-0.680;2023-04-06T00:58:02;8.40;;;5.80;;
57249;SDS011;43102;52.014;-0.680;2023-04-06T00:59:01;8.40;;;5.80;;
57249;SDS011;43102;52.014;-0.680;2023-04-06T01:00:01;8.40;;;5.80;;
57249;SDS011;43102;52.014;-0.680;2023-04-06T01:01:01;8.40;;;5.80;;
57249;SDS011;43102;52.014;-0.680;2023-04-06T01:02:00;8.40;;;5.80;;
57249;SDS011;43102;52.014;-0.680;2023-04-06T01:03:01;8.40;;;5.80;;
57249;SDS011;43102;52.014;-0.680;2023-04-06T01:04:02;8.40;;;5.80;;
57249;SDS011;43102;52.014;-0.680;2023-04-06T01:05:01;8.40;;;5.80;;
57249;SDS011;43102;52.014;-0.680;2023-04-06T01:06:00;8.40;;;5.80;;
57249;SDS011;43102;52.014;-0.680;2023-04-06T01:07:01;8.40;;;5.80;;
57249;SDS011;43102;52.014;-0.680;2023-04-06T01:08:00;8.40;;;5.80;;
57249;SDS011;43102;52.014;-0.680;2023-04-06T01:09:00;6.50;;;5.10;;
57249;SDS011;43102;52.014;-0.680;2023-04-06T01:10:00;6.50;;;5.10;;
57249;SDS011;43102;52.014;-0.680;2023-04-06T01:11:01;6.50;;;5.10;;
57249;SDS011;43102;52.014;-0.680;2023-04-06T01:12:01;6.50;;;5.10;;
57249;SDS011;43102;52.014;-0.680;2023-04-06T01:13:01;6.50;;;5.10;;
57249;SDS011;43102;52.014;-0.680;2023-04-06T01:14:00;6.50;;;5.10;;
57249;SDS011;43102;52.014;-0.680;2023-04-06T01:15:01;6.50;;;5.10;;
57249;SDS011;43102;52.014;-0.680;2023-04-06T01:16:01;6.50;;;5.10;;
57249;SDS011;43102;52.014;-0.680;2023-04-06T01:17:01;6.50;;;5.10;;
57249;SDS011;43102;52.014;-0.680;2023-04-06T01:18:01;6.50;;;5.10;;
57249;SDS011;43102;52.014;-0.680;2023-04-06T01:19:04;6.50;;;5.10;;
57249;SDS011;43102;52.014;-0.680;2023-04-06T01:20:00;6.50;;;5.10;;
57249;SDS011;43102;52.014;-0.680;2023-04-06T01:21:01;6.50;;;5.10;;
57249;SDS011;43102;52.014;-0.680;2023-04-06T01:22:00;6.50;;;5.10;;
57249;SDS011;43102;52.014;-0.680;2023-04-06T01:23:00;6.50;;;5.10;;
57249;SDS011;43102;52.014;-0.680;2023-04-06T01:24:00;6.50;;;5.10;;
57249;SDS011;43102;52.014;-0.680;2023-04-06T01:25:00;6.50;;;5.10;;
57249;SDS011;43102;52.014;-0.680;2023-04-06T01:26:00;6.50;;;5.10;;
57249;SDS011;43102;52.014;-0.680;2023-04-06T01:27:01;6.50;;;5.10;;
57249;SDS011;43102;52.014;-0.680;2023-04-06T01:28:00;6.50;;;5.10;;
57249;SDS011;43102;52.014;-0.680;2023-04-06T01:29:01;6.50;;;5.10;;
57249;SDS011;43102;52.014;-0.680;2023-04-06T01:30:00;6.50;;;5.10;;
57249;SDS011;43102;52.014;-0.680;2023-04-06T01:31:01;6.50;;;5.10;;
57249;SDS011;43102;52.014;-0.680;2023-04-06T01:32:00;6.50;;;5.10;;
57249;SDS011;43102;52.014;-0.680;2023-04-06T01:33:01;6.50;;;5.10;;
57249;SDS011;43102;52.014;-0.680;2023-04-06T01:34:00;6.50;;;5.10;;
57249;SDS011;43102;52.014;-0.680;2023-04-06T01:35:01;6.50;;;5.10;;
57249;SDS011;43102;52.014;-0.680;2023-04-06T01:36:01;6.50;;;5.10;;
57249;SDS011;43102;52.014;-0.680;2023-04-06T01:37:00;6.50;;;5.10;;
57249;SDS011;43102;52.014;-0.680;2023-04-06T01:38:00;6.50;;;5.10;;
57249;SDS011;43102;52.014;-0.680;2023-04-06T01:39:00;8.40;;;5.10;;
57249;SDS011;43102;52.014;-0.680;2023-04-06T01:40:01;8.40;;;5.10;;
57249;SDS011;43102;52.014;-0.680;2023-04-06T01:41:00;8.40;;;5.10;;
57249;SDS011;43102;52.014;-0.680;2023-04-06T01:42:00;8.40;;;5.10;;
57249;SDS011;43102;52.014;-0.680;2023-04-06T01:43:01;8.40;;;5.10;;
57249;SDS011;43102;52.014;-0.680;2023-04-06T01:44:01;8.40;;;5.10;;
57249;SDS011;43102;52.014;-0.680;2023-04-06T01:45:00;8.40;;;5.10;;
57249;SDS011;43102;52.014;-0.680;2023-04-06T01:46:01;8.40;;;5.10;;
57249;SDS011;43102;52.014;-0.680;2023-04-06T01:47:00;8.40;;;5.10;;
57249;SDS011;43102;52.014;-0.680;2023-04-06T01:48:00;8.40;;;5.10;;
57249;SDS011;43102;52.014;-0.680;2023-04-06T01:49:00;8.40;;;5.10;;
57249;SDS011;43102;52.014;-0.680;2023-04-06T01:50:00;8.40;;;5.10;;
57249;SDS011;43102;52.014;-0.680;2023-04-06T01:51:01;8.40;;;5.10;;
57249;SDS011;43102;52.014;-0.680;2023-04-06T01:52:00;8.40;;;5.10;;
57249;SDS011;43102;52.014;-0.680;2023-04-06T01:53:00;8.40;;;5.10;;
57249;SDS011;43102;52.014;-0.680;2023-04-06T01:54:00;8.40;;;5.10;;
57249;SDS011;43102;52.014;-0.680;2023-04-06T01:55:00;8.40;;;5.10;;
57249;SDS011;43102;52.014;-0.680;2023-04-06T01:56:00;8.40;;;5.10;;
57249;SDS011;43102;52.014;-0.680;2023-04-06T01:57:00;8.40;;;5.10;;
57249;SDS011;43102;52.014;-0.680;2023-04-06T01:58:00;8.40;;;5.10;;
57249;SDS011;43102;52.014;-0.680;2023-04-06T01:59:00;8.40;;;5.10;;
57249;SDS011;43102;52.014;-0.680;2023-04-06T02:00:00;8.40;;;5.10;;
57249;SDS011;43102;52.014;-0.680;2023-04-06T02:01:01;8.40;;;5.10;;
57249;SDS011;43102;52.014;-0.680;2023-04-06T02:02:01;8.40;;;5.10;;
57249;SDS011;43102;52.014;-0.680;2023-04-06T02:03:01;8.40;;;5.10;;
57249;SDS011;43102;52.014;-0.680;2023-04-06T02:04:00;8.40;;;5.10;;
57249;SDS011;43102;52.014;-0.680;2023-04-06T02:05:02;8.40;;;5.10;;
57249;SDS011;43102;52.014;-0.680;2023-04-06T02:06:00;8.40;;;5.10;;
57249;SDS011;43102;52.014;-0.680;2023-04-06T02:07:00;8.40;;;5.10;;
57249;SDS011;43102;52.014;-0.680;2023-04-06T02:08:00;8.40;;;5.10;;
57249;SDS011;43102;52.014;-0.680;2023-04-06T02:09:01;6.70;;;5.00;;
57249;SDS011;43102;52.014;-0.680;2023-04-06T02:10:01;6.70;;;5.00;;
57249;SDS011;43102;52.014;-0.680;2023-04-06T02:11:00;6.70;;;5.00;;
57249;SDS011;43102;52.014;-0.680;2023-04-06T02:12:01;6.70;;;5.00;;
57249;SDS011;43102;52.014;-0.680;2023-04-06T02:13:01;6.70;;;5.00;;
57249;SDS011;43102;52.014;-0.680;2023-04-06T02:14:01;6.70;;;5.00;;
57249;SDS011;43102;52.014;-0.680;2023-04-06T02:15:00;6.70;;;5.00;;
57249;SDS011;43102;52.014;-0.680;2023-04-06T02:16:02;6.70;;;5.00;;
57249;SDS011;43102;52.014;-0.680;2023-04-06T02:17:00;6.70;;;5.00;;
57249;SDS011;43102;52.014;-0.680;2023-04-06T02:18:01;6.70;;;5.00;;
57249;SDS011;43102;52.014;-0.680;2023-04-06T02:19:01;6.70;;;5.00;;
57249;SDS011;43102;52.014;-0.680;2023-04-06T02:20:00;6.70;;;5.00;;
57249;SDS011;43102;52.014;-0.680;2023-04-06T02:21:01;6.70;;;5.00;;
57249;SDS011;43102;52.014;-0.680;2023-04-06T02:22:00;6.70;;;5.00;;
57249;SDS011;43102;52.014;-0.680;2023-04-06T02:23:00;6.70;;;5.00;;
57249;SDS011;43102;52.014;-0.680;2023-04-06T02:24:01;6.70;;;5.00;;
57249;SDS011;43102;52.014;-0.680;2023-04-06T02:25:01;6.70;;;5.00;;
57249;SDS011;43102;52.014;-0.680;2023-04-06T02:26:00;6.70;;;5.00;;
57249;SDS011;43102;52.014;-0.680;2023-04-06T02:27:01;6.70;;;5.00;;
57249;SDS011;43102;52.014;-0.680;2023-04-06T02:28:00;6.70;;;5.00;;
57249;SDS011;43102;52.014;-0.680;2023-04-06T02:29:02;6.70;;;5.00;;
57249;SDS011;43102;52.014;-0.680;2023-04-06T02:30:00;6.70;;;5.00;;
57249;SDS011;43102;52.014;-0.680;2023-04-06T02:31:01;6.70;;;5.00;;
57249;SDS011;43102;52.014;-0.680;2023-04-06T02:32:01;6.70;;;5.00;;
57249;SDS011;43102;52.014;-0.680;2023-04-06T02:33:02;6.70;;;5.00;;
57249;SDS011;43102;52.014;-0.680;2023-04-06T02:34:00;6.70;;;5.00;;
57249;SDS011;43102;52.014;-0.680;2023-04-06T02:35:01;6.70;;;5.00;;
57249;SDS011;43102;52.014;-0.680;2023-04-06T02:36:00;6.70;;;5.00;;
57249;SDS011;43102;52.014;-0.680;2023-04-06T02:37:00;6.70;;;5.00;;
57249;SDS011;43102;52.014;-0.680;2023-04-06T02:38:00;6.70;;;5.00;;
57249;SDS011;43102;52.014;-0.680;2023-04-06T02:39:00;6.80;;;5.50;;
57249;SDS011;43102;52.014;-0.680;2023-04-06T02:40:00;6.80;;;5.50;;
57249;SDS011;43102;52.014;-0.680;2023-04-06T02:41:01;6.80;;;5.50;;
57249;SDS011;43102;52.014;-0.680;2023-04-06T02:42:00;6.80;;;5.50;;
57249;SDS011;43102;52.014;-0.680;2023-04-06T02:43:00;6.80;;;5.50;;
57249;SDS011;43102;52.014;-0.680;2023-04-06T02:44:00;6.80;;;5.50;;
57249;SDS011;43102;52.014;-0.680;2023-04-06T02:45:00;6.80;;;5.50;;
57249;SDS011;43102;52.014;-0.680;2023-04-06T02:46:01;6.80;;;5.50;;
57249;SDS011;43102;52.014;-0.680;2023-04-06T02:47:03;6.80;;;5.50;;
57249;SDS011;43102;52.014;-0.680;2023-04-06T02:48:01;6.80;;;5.50;;
57249;SDS011;43102;52.014;-0.680;2023-04-06T02:49:00;6.80;;;5.50;;
57249;SDS011;43102;52.014;-0.680;2023-04-06T02:50:01;6.80;;;5.50;;
57249;SDS011;43102;52.014;-0.680;2023-04-06T02:51:00;6.80;;;5.50;;
57249;SDS011;43102;52.014;-0.680;2023-04-06T02:52:01;6.80;;;5.50;;
57249;SDS011;43102;52.014;-0.680;2023-04-06T02:53:00;6.80;;;5.50;;
57249;SDS011;43102;52.014;-0.680;2023-04-06T02:54:00;6.80;;;5.50;;
57249;SDS011;43102;52.014;-0.680;2023-04-06T02:55:00;6.80;;;5.50;;
57249;SDS011;43102;52.014;-0.680;2023-04-06T02:56:00;6.80;;;5.50;;
57249;SDS011;43102;52.014;-0.680;2023-04-06T02:57:01;6.80;;;5.50;;
57249;SDS011;43102;52.014;-0.680;2023-04-06T02:58:00;6.80;;;5.50;;
57249;SDS011;43102;52.014;-0.680;2023-04-06T02:59:00;6.80;;;5.50;;
57249;SDS011;43102;52.014;-0.680;2023-04-06T03:00:00;6.80;;;5.50;;
57249;SDS011;43102;52.014;-0.680;2023-04-06T03:01:01;6.80;;;5.50;;
57249;SDS011;43102;52.014;-0.680;2023-04-06T03:02:00;6.80;;;5.50;;
57249;SDS011;43102;52.014;-0.680;2023-04-06T03:03:01;6.80;;;5.50;;
57249;SDS011;43102;52.014;-0.680;2023-04-06T03:04:00;6.80;;;5.50;;
57249;SDS011;43102;52.014;-0.680;2023-04-06T03:05:03;6.80;;;5.50;;
57249;SDS011;43102;52.014;-0.680;2023-04-06T03:06:00;6.80;;;5.50;;
57249;SDS011;43102;52.014;-0.680;2023-04-06T03:07:01;6.80;;;5.50;;
57249;SDS011;43102;52.014;-0.680;2023-04-06T03:08:00;6.80;;;5.50;;
57249;SDS011;43102;52.014;-0.680;2023-04-06T03:09:00;5.90;;;4.40;;
57249;SDS011;43102;52.014;-0.680;2023-04-06T03:10:00;5.90;;;4.40;;
57249;SDS011;43102;52.014;-0.680;2023-04-06T03:11:01;5.90;;;4.40;;
57249;SDS011;43102;52.014;-0.680;2023-04-06T03:12:01;5.90;;;4.40;;
57249;SDS011;43102;52.014;-0.680;2023-04-06T03:13:00;5.90;;;4.40;;
57249;SDS011;43102;52.014;-0.680;2023-04-06T03:14:00;5.90;;;4.40;;
57249;SDS011;43102;52.014;-0.680;2023-04-06T03:15:00;5.90;;;4.40;;
57249;SDS011;43102;52.014;-0.680;2023-04-06T03:16:01;5.90;;;4.40;;
57249;SDS011;43102;52.014;-0.680;2023-04-06T03:17:01;5.90;;;4.40;;
57249;SDS011;43102;52.014;-0.680;2023-04-06T03:18:01;5.90;;;4.40;;
57249;SDS011;43102;52.014;-0.680;2023-04-06T03:19:00;5.90;;;4.40;;
57249;SDS011;43102;52.014;-0.680;2023-04-06T03:20:00;5.90;;;4.40;;
57249;SDS011;43102;52.014;-0.680;2023-04-06T03:21:00;5.90;;;4.40;;
57249;SDS011;43102;52.014;-0.680;2023-04-06T03:22:00;5.90;;;4.40;;
57249;SDS011;43102;52.014;-0.680;2023-04-06T03:23:01;5.90;;;4.40;;
57249;SDS011;43102;52.014;-0.680;2023-04-06T03:24:00;5.90;;;4.40;;
57249;SDS011;43102;52.014;-0.680;2023-04-06T03:25:03;5.90;;;4.40;;
57249;SDS011;43102;52.014;-0.680;2023-04-06T03:26:01;5.90;;;4.40;;
57249;SDS011;43102;52.014;-0.680;2023-04-06T03:27:00;5.90;;;4.40;;
57249;SDS011;43102;52.014;-0.680;2023-04-06T03:28:01;5.90;;;4.40;;
57249;SDS011;43102;52.014;-0.680;2023-04-06T03:29:00;5.90;;;4.40;;
57249;SDS011;43102;52.014;-0.680;2023-04-06T03:30:01;5.90;;;4.40;;
57249;SDS011;43102;52.014;-0.680;2023-04-06T03:31:01;5.90;;;4.40;;
57249;SDS011;43102;52.014;-0.680;2023-04-06T03:32:00;5.90;;;4.40;;
57249;SDS011;43102;52.014;-0.680;2023-04-06T03:33:01;5.90;;;4.40;;
57249;SDS011;43102;52.014;-0.680;2023-04-06T03:34:00;5.90;;;4.40;;
57249;SDS011;43102;52.014;-0.680;2023-04-06T03:35:00;5.90;;;4.40;;
57249;SDS011;43102;52.014;-0.680;2023-04-06T03:36:01;5.90;;;4.40;;
57249;SDS011;43102;52.014;-0.680;2023-04-06T03:37:10;5.90;;;4.40;;
57249;SDS011;43102;52.014;-0.680;2023-04-06T03:38:00;5.90;;;4.40;;
57249;SDS011;43102;52.014;-0.680;2023-04-06T03:39:01;7.40;;;5.70;;
57249;SDS011;43102;52.014;-0.680;2023-04-06T03:40:01;7.40;;;5.70;;
57249;SDS011;43102;52.014;-0.680;2023-04-06T03:41:00;7.40;;;5.70;;
57249;SDS011;43102;52.014;-0.680;2023-04-06T03:42:00;7.40;;;5.70;;
57249;SDS011;43102;52.014;-0.680;2023-04-06T03:43:00;7.40;;;5.70;;
57249;SDS011;43102;52.014;-0.680;2023-04-06T03:44:00;7.40;;;5.70;;
57249;SDS011;43102;52.014;-0.680;2023-04-06T03:45:00;7.40;;;5.70;;
57249;SDS011;43102;52.014;-0.680;2023-04-06T03:46:01;7.40;;;5.70;;
57249;SDS011;43102;52.014;-0.680;2023-04-06T03:47:02;7.40;;;5.70;;
57249;SDS011;43102;52.014;-0.680;2023-04-06T03:48:01;7.40;;;5.70;;
57249;SDS011;43102;52.014;-0.680;2023-04-06T03:49:01;7.40;;;5.70;;
57249;SDS011;43102;52.014;-0.680;2023-04-06T03:50:01;7.40;;;5.70;;
57249;SDS011;43102;52.014;-0.680;2023-04-06T03:51:00;7.40;;;5.70;;
57249;SDS011;43102;52.014;-0.680;2023-04-06T03:52:01;7.40;;;5.70;;
57249;SDS011;43102;52.014;-0.680;2023-04-06T03:53:02;7.40;;;5.70;;
57249;SDS011;43102;52.014;-0.680;2023-04-06T03:54:00;7.40;;;5.70;;
57249;SDS011;43102;52.014;-0.680;2023-04-06T03:55:00;7.40;;;5.70;;
57249;SDS011;43102;52.014;-0.680;2023-04-06T03:56:04;7.40;;;5.70;;
57249;SDS011;43102;52.014;-0.680;2023-04-06T03:57:00;7.40;;;5.70;;
57249;SDS011;43102;52.014;-0.680;2023-04-06T03:58:00;7.40;;;5.70;;
57249;SDS011;43102;52.014;-0.680;2023-04-06T03:59:01;7.40;;;5.70;;
57249;SDS011;43102;52.014;-0.680;2023-04-06T04:00:00;7.40;;;5.70;;
57249;SDS011;43102;52.014;-0.680;2023-04-06T04:01:00;7.40;;;5.70;;
57249;SDS011;43102;52.014;-0.680;2023-04-06T04:02:00;7.40;;;5.70;;
57249;SDS011;43102;52.014;-0.680;2023-04-06T04:03:02;7.40;;;5.70;;
57249;SDS011;43102;52.014;-0.680;2023-04-06T04:04:01;7.40;;;5.70;;
57249;SDS011;43102;52.014;-0.680;2023-04-06T04:05:01;7.40;;;5.70;;
57249;SDS011;43102;52.014;-0.680;2023-04-06T04:06:00;7.40;;;5.70;;
57249;SDS011;43102;52.014;-0.680;2023-04-06T04:07:00;7.40;;;5.70;;
57249;SDS011;43102;52.014;-0.680;2023-04-06T04:08:00;7.40;;;5.70;;
57249;SDS011;43102;52.014;-0.680;2023-04-06T04:09:00;14.30;;;9.90;;
57249;SDS011;43102;52.014;-0.680;2023-04-06T04:10:00;14.30;;;9.90;;
57249;SDS011;43102;52.014;-0.680;2023-04-06T04:11:01;14.30;;;9.90;;
57249;SDS011;43102;52.014;-0.680;2023-04-06T04:12:00;14.30;;;9.90;;
57249;SDS011;43102;52.014;-0.680;2023-04-06T04:13:00;14.30;;;9.90;;
57249;SDS011;43102;52.014;-0.680;2023-04-06T04:14:00;14.30;;;9.90;;
57249;SDS011;43102;52.014;-0.680;2023-04-06T04:15:01;14.30;;;9.90;;
57249;SDS011;43102;52.014;-0.680;2023-04-06T04:16:01;14.30;;;9.90;;
57249;SDS011;43102;52.014;-0.680;2023-04-06T04:17:00;14.30;;;9.90;;
57249;SDS011;43102;52.014;-0.680;2023-04-06T04:18:01;14.30;;;9.90;;
57249;SDS011;43102;52.014;-0.680;2023-04-06T04:19:00;14.30;;;9.90;;
57249;SDS011;43102;52.014;-0.680;2023-04-06T04:20:00;14.30;;;9.90;;
57249;SDS011;43102;52.014;-0.680;2023-04-06T04:21:00;14.30;;;9.90;;
57249;SDS011;43102;52.014;-0.680;2023-04-06T04:22:00;14.30;;;9.90;;
57249;SDS011;43102;52.014;-0.680;2023-04-06T04:23:00;14.30;;;9.90;;
57249;SDS011;43102;52.014;-0.680;2023-04-06T04:24:01;14.30;;;9.90;;
57249;SDS011;43102;52.014;-0.680;2023-04-06T04:25:00;14.30;;;9.90;;
57249;SDS011;43102;52.014;-0.680;2023-04-06T04:26:01;14.30;;;9.90;;
57249;SDS011;43102;52.014;-0.680;2023-04-06T04:27:01;14.30;;;9.90;;
57249;SDS011;43102;52.014;-0.680;2023-04-06T04:28:00;14.30;;;9.90;;
57249;SDS011;43102;52.014;-0.680;2023-04-06T04:29:00;14.30;;;9.90;;
57249;SDS011;43102;52.014;-0.680;2023-04-06T04:30:01;14.30;;;9.90;;
57249;SDS011;43102;52.014;-0.680;2023-04-06T04:31:00;14.30;;;9.90;;
57249;SDS011;43102;52.014;-0.680;2023-04-06T04:32:01;14.30;;;9.90;;
57249;SDS011;43102;52.014;-0.680;2023-04-06T04:33:01;14.30;;;9.90;;
57249;SDS011;43102;52.014;-0.680;2023-04-06T04:34:01;14.30;;;9.90;;
57249;SDS011;43102;52.014;-0.680;2023-04-06T04:35:00;14.30;;;9.90;;
57249;SDS011;43102;52.014;-0.680;2023-04-06T04:36:01;14.30;;;9.90;;
57249;SDS011;43102;52.014;-0.680;2023-04-06T04:37:01;14.30;;;9.90;;
57249;SDS011;43102;52.014;-0.680;2023-04-06T04:38:00;14.30;;;9.90;;
57249;SDS011;43102;52.014;-0.680;2023-04-06T04:39:01;16.60;;;11.90;;
57249;SDS011;43102;52.014;-0.680;2023-04-06T04:40:01;16.60;;;11.90;;
57249;SDS011;43102;52.014;-0.680;2023-04-06T04:41:01;16.60;;;11.90;;
57249;SDS011;43102;52.014;-0.680;2023-04-06T04:42:00;16.60;;;11.90;;
57249;SDS011;43102;52.014;-0.680;2023-04-06T04:43:01;16.60;;;11.90;;
57249;SDS011;43102;52.014;-0.680;2023-04-06T04:44:01;16.60;;;11.90;;
57249;SDS011;43102;52.014;-0.680;2023-04-06T04:45:03;16.60;;;11.90;;
57249;SDS011;43102;52.014;-0.680;2023-04-06T04:46:01;16.60;;;11.90;;
57249;SDS011;43102;52.014;-0.680;2023-04-06T04:47:00;16.60;;;11.90;;
57249;SDS011;43102;52.014;-0.680;2023-04-06T04:48:01;16.60;;;11.90;;
57249;SDS011;43102;52.014;-0.680;2023-04-06T04:49:01;16.60;;;11.90;;
57249;SDS011;43102;52.014;-0.680;2023-04-06T04:50:01;16.60;;;11.90;;
57249;SDS011;43102;52.014;-0.680;2023-04-06T04:51:01;16.60;;;11.90;;
57249;SDS011;43102;52.014;-0.680;2023-04-06T04:52:01;16.60;;;11.90;;
57249;SDS011;43102;52.014;-0.680;2023-04-06T04:53:00;16.60;;;11.90;;
57249;SDS011;43102;52.014;-0.680;2023-04-06T04:54:00;16.60;;;11.90;;
57249;SDS011;43102;52.014;-0.680;2023-04-06T04:55:01;16.60;;;11.90;;
57249;SDS011;43102;52.014;-0.680;2023-04-06T04:56:01;16.60;;;11.90;;
57249;SDS011;43102;52.014;-0.680;2023-04-06T04:57:00;16.60;;;11.90;;
57249;SDS011;43102;52.014;-0.680;2023-04-06T04:58:02;16.60;;;11.90;;
57249;SDS011;43102;52.014;-0.680;2023-04-06T04:59:01;16.60;;;11.90;;
57249;SDS011;43102;52.014;-0.680;2023-04-06T05:00:01;16.60;;;11.90;;
57249;SDS011;43102;52.014;-0.680;2023-04-06T05:01:00;16.60;;;11.90;;
57249;SDS011;43102;52.014;-0.680;2023-04-06T05:02:01;16.60;;;11.90;;
57249;SDS011;43102;52.014;-0.680;2023-04-06T05:03:01;16.60;;;11.90;;
57249;SDS011;43102;52.014;-0.680;2023-04-06T05:04:00;16.60;;;11.90;;
57249;SDS011;43102;52.014;-0.680;2023-04-06T05:05:00;16.60;;;11.90;;
57249;SDS011;43102;52.014;-0.680;2023-04-06T05:06:01;16.60;;;11.90;;
57249;SDS011;43102;52.014;-0.680;2023-04-06T05:07:09;16.60;;;11.90;;
57249;SDS011;43102;52.014;-0.680;2023-04-06T05:08:01;16.60;;;11.90;;
57249;SDS011;43102;52.014;-0.680;2023-04-06T05:09:00;12.10;;;8.60;;
57249;SDS011;43102;52.014;-0.680;2023-04-06T05:10:01;12.10;;;8.60;;
57249;SDS011;43102;52.014;-0.680;2023-04-06T05:11:01;12.10;;;8.60;;
57249;SDS011;43102;52.014;-0.680;2023-04-06T05:12:00;12.10;;;8.60;;
57249;SDS011;43102;52.014;-0.680;2023-04-06T05:13:00;12.10;;;8.60;;
57249;SDS011;43102;52.014;-0.680;2023-04-06T05:14:02;12.10;;;8.60;;
57249;SDS011;43102;52.014;-0.680;2023-04-06T05:15:01;12.10;;;8.60;;
57249;SDS011;43102;52.014;-0.680;2023-04-06T05:16:01;12.10;;;8.60;;
57249;SDS011;43102;52.014;-0.680;2023-04-06T05:17:01;12.10;;;8.60;;
57249;SDS011;43102;52.014;-0.680;2023-04-06T05:18:01;12.10;;;8.60;;
57249;SDS011;43102;52.014;-0.680;2023-04-06T05:19:00;12.10;;;8.60;;
57249;SDS011;43102;52.014;-0.680;2023-04-06T05:20:00;12.10;;;8.60;;
57249;SDS011;43102;52.014;-0.680;2023-04-06T05:21:01;12.10;;;8.60;;
57249;SDS011;43102;52.014;-0.680;2023-04-06T05:22:00;12.10;;;8.60;;
57249;SDS011;43102;52.014;-0.680;2023-04-06T05:23:01;12.10;;;8.60;;
57249;SDS011;43102;52.014;-0.680;2023-04-06T05:24:02;12.10;;;8.60;;
57249;SDS011;43102;52.014;-0.680;2023-04-06T05:25:02;12.10;;;8.60;;
57249;SDS011;43102;52.014;-0.680;2023-04-06T05:26:00;12.10;;;8.60;;
57249;SDS011;43102;52.014;-0.680;2023-04-06T05:27:00;12.10;;;8.60;;
57249;SDS011;43102;52.014;-0.680;2023-04-06T05:28:01;12.10;;;8.60;;
57249;SDS011;43102;52.014;-0.680;2023-04-06T05:29:01;12.10;;;8.60;;
57249;SDS011;43102;52.014;-0.680;2023-04-06T05:30:01;12.10;;;8.60;;
57249;SDS011;43102;52.014;-0.680;2023-04-06T05:31:01;12.10;;;8.60;;
57249;SDS011;43102;52.014;-0.680;2023-04-06T05:32:01;12.10;;;8.60;;
57249;SDS011;43102;52.014;-0.680;2023-04-06T05:33:01;12.10;;;8.60;;
57249;SDS011;43102;52.014;-0.680;2023-04-06T05:34:01;12.10;;;8.60;;
57249;SDS011;43102;52.014;-0.680;2023-04-06T05:35:01;12.10;;;8.60;;
57249;SDS011;43102;52.014;-0.680;2023-04-06T05:36:00;12.10;;;8.60;;
57249;SDS011;43102;52.014;-0.680;2023-04-06T05:37:00;12.10;;;8.60;;
57249;SDS011;43102;52.014;-0.680;2023-04-06T05:38:00;12.10;;;8.60;;
57249;SDS011;43102;52.014;-0.680;2023-04-06T05:39:01;10.30;;;7.80;;
57249;SDS011;43102;52.014;-0.680;2023-04-06T05:40:01;10.30;;;7.80;;
57249;SDS011;43102;52.014;-0.680;2023-04-06T05:41:00;10.30;;;7.80;;
57249;SDS011;43102;52.014;-0.680;2023-04-06T05:42:03;10.30;;;7.80;;
57249;SDS011;43102;52.014;-0.680;2023-04-06T05:43:00;10.30;;;7.80;;
57249;SDS011;43102;52.014;-0.680;2023-04-06T05:44:00;10.30;;;7.80;;
57249;SDS011;43102;52.014;-0.680;2023-04-06T05:45:00;10.30;;;7.80;;
57249;SDS011;43102;52.014;-0.680;2023-04-06T05:46:01;10.30;;;7.80;;
57249;SDS011;43102;52.014;-0.680;2023-04-06T05:47:00;10.30;;;7.80;;
57249;SDS011;43102;52.014;-0.680;2023-04-06T05:48:02;10.30;;;7.80;;
57249;SDS011;43102;52.014;-0.680;2023-04-06T05:49:01;10.30;;;7.80;;
57249;SDS011;43102;52.014;-0.680;2023-04-06T05:50:01;10.30;;;7.80;;
57249;SDS011;43102;52.014;-0.680;2023-04-06T05:51:02;10.30;;;7.80;;
57249;SDS011;43102;52.014;-0.680;2023-04-06T05:52:01;10.30;;;7.80;;
57249;SDS011;43102;52.014;-0.680;2023-04-06T05:53:00;10.30;;;7.80;;